Time;durP1;ratioP1;P1;durP2;ratioP2;P2;SDS_P1;SDS_P2;PMS_P1;PMS_P2;Temp;Humidity;BMP_temperature;BMP_pressure;BME280_temperature;BME280_humidity;BME280_pressure;Samples;Min_cycle;Max_cycle;Signal;HPM_P1;HPM_P2
2021/11/11 00:00:12;;;;;;;14.93;2.30;;;;;;;7.42;100.00;101844.84;5042567;28;20033;-80
2021/11/11 00:02:39;;;;;;;16.38;2.03;;;;;;;7.44;100.00;101845.50;5044314;28;20021;-81
2021/11/11 00:05:05;;;;;;;17.98;2.20;;;;;;;7.40;100.00;101833.41;5049898;28;20462;-81
2021/11/11 00:07:32;;;;;;;18.45;2.40;;;;;;;7.51;100.00;101835.84;5054938;28;20032;-80
2021/11/11 00:09:58;;;;;;;20.50;2.20;;;;;;;7.55;100.00;101828.38;5069330;28;20033;-80
2021/11/11 00:12:25;;;;;;;16.83;1.95;;;;;;;7.57;100.00;101823.69;5073706;28;20023;-81
2021/11/11 00:14:55;;;;;;;21.70;2.40;;;;;;;7.46;100.00;101810.56;5063833;28;20103;-80
2021/11/11 00:17:20;;;;;;;18.38;2.30;;;;;;;7.59;100.00;101831.59;5063116;28;20041;-80
2021/11/11 00:19:46;;;;;;;21.08;2.00;;;;;;;7.59;100.00;101835.09;5063473;28;20101;-80
2021/11/11 00:22:12;;;;;;;17.35;1.95;;;;;;;7.58;100.00;101836.09;5065431;28;20070;-80
2021/11/11 00:24:37;;;;;;;27.33;2.50;;;;;;;7.56;100.00;101827.38;5073010;28;20095;-82
2021/11/11 00:27:03;;;;;;;15.82;2.13;;;;;;;7.53;100.00;101843.75;5072422;28;20029;-80
2021/11/11 00:29:28;;;;;;;18.55;2.42;;;;;;;7.49;100.00;101837.88;5054016;28;20021;-80
2021/11/11 00:31:54;;;;;;;25.50;2.88;;;;;;;7.42;100.00;101825.25;5044507;28;20025;-80
2021/11/11 00:34:19;;;;;;;27.75;2.50;;;;;;;7.44;100.00;101828.59;5051514;28;20025;-80
2021/11/11 00:36:45;;;;;;;18.13;2.30;;;;;;;7.38;100.00;101823.84;5063154;28;20466;-80
2021/11/11 00:39:10;;;;;;;24.48;2.25;;;;;;;7.40;100.00;101825.38;5059013;28;20036;-81
2021/11/11 00:41:36;;;;;;;19.30;2.10;;;;;;;7.40;100.00;101832.59;5066149;28;20060;-81
2021/11/11 00:44:01;;;;;;;17.40;1.92;;;;;;;7.36;100.00;101813.31;5063395;28;20081;-80
2021/11/11 00:46:27;;;;;;;14.27;1.80;;;;;;;7.36;100.00;101804.44;5062818;28;20032;-80
2021/11/11 00:48:53;;;;;;;17.67;2.05;;;;;;;7.36;100.00;101802.59;5063814;28;20032;-81
2021/11/11 00:51:19;;;;;;;13.73;1.77;;;;;;;7.33;100.00;101794.88;5062857;28;20039;-81
2021/11/11 00:53:44;;;;;;;16.73;2.13;;;;;;;7.31;100.00;101788.81;5056669;28;20115;-80
2021/11/11 00:56:09;;;;;;;13.15;1.80;;;;;;;7.33;100.00;101792.19;5061256;28;20469;-80
2021/11/11 00:58:35;;;;;;;16.45;1.85;;;;;;;7.32;100.00;101782.50;5059327;28;20036;-80
2021/11/11 01:01:01;;;;;;;10.73;1.77;;;;;;;7.35;100.00;101786.69;5059586;28;20068;-80
2021/11/11 01:03:34;;;;;;;15.32;1.92;;;;;;;7.35;100.00;101782.19;5059318;28;20025;-80
2021/11/11 01:05:59;;;;;;;10.93;1.80;;;;;;;7.36;100.00;101778.50;5060596;28;20435;-80
2021/11/11 01:08:28;;;;;;;11.98;1.70;;;;;;;7.43;100.00;101762.66;5061876;28;20045;-80
2021/11/11 01:10:55;;;;;;;11.43;1.95;;;;;;;7.50;99.45;101767.22;5060712;28;20469;-80
2021/11/11 01:13:20;;;;;;;16.17;1.75;;;;;;;7.50;98.98;101772.59;5060594;28;20120;-80
2021/11/11 01:15:46;;;;;;;20.98;2.10;;;;;;;7.45;98.79;101774.91;5061574;28;20461;-80
2021/11/11 01:18:11;;;;;;;14.52;1.73;;;;;;;7.51;98.58;101792.16;5059960;28;20162;-80
2021/11/11 01:20:37;;;;;;;17.65;1.85;;;;;;;7.47;98.79;101770.22;5058655;28;20041;-80
2021/11/11 01:23:02;;;;;;;17.35;1.73;;;;;;;7.22;97.58;101712.13;5062007;28;20029;-80
2021/11/11 01:25:31;;;;;;;16.15;1.80;;;;;;;7.58;97.99;101747.69;5058825;28;20028;-80
2021/11/11 01:27:57;;;;;;;16.45;1.80;;;;;;;7.68;97.73;101753.81;5057238;28;20087;-80
2021/11/11 01:30:23;;;;;;;15.95;2.15;;;;;;;7.47;96.29;101695.22;5062908;28;20032;-81
2021/11/11 01:32:48;;;;;;;12.45;2.13;;;;;;;7.86;96.26;101715.41;5063283;28;20039;-80
2021/11/11 01:35:15;;;;;;;15.38;1.80;;;;;;;7.88;96.03;101719.63;5059509;28;20052;-80
2021/11/11 01:37:41;;;;;;;14.95;1.77;;;;;;;7.88;95.83;101726.78;5071651;28;20447;-80
2021/11/11 01:40:08;;;;;;;15.60;2.28;;;;;;;7.86;96.19;101729.66;5061690;28;20366;-80
2021/11/11 01:42:48;;;;;;;13.20;2.20;;;;;;;7.80;96.17;101716.03;5060777;28;20100;-80
2021/11/11 01:45:14;;;;;;;15.27;1.80;;;;;;;7.81;96.32;101710.50;5063849;28;20044;-80
2021/11/11 01:47:40;;;;;;;17.02;3.15;;;;;;;7.80;96.39;101710.69;5061879;28;20033;-80
2021/11/11 01:50:07;;;;;;;17.27;2.28;;;;;;;7.83;96.63;101710.38;5073555;28;20033;-80
2021/11/11 01:52:32;;;;;;;14.70;2.10;;;;;;;7.83;96.31;101713.88;5066691;28;20036;-81
2021/11/11 01:54:58;;;;;;;17.10;2.42;;;;;;;7.84;96.04;101712.03;5061765;28;20153;-80
2021/11/11 01:57:25;;;;;;;11.30;1.77;;;;;;;7.84;96.55;101718.22;5061758;28;20094;-81
2021/11/11 01:59:52;;;;;;;19.08;1.90;;;;;;;7.81;95.93;101712.34;5061215;28;20458;-81
2021/11/11 02:02:28;;;;;;;17.27;2.25;;;;;;;7.81;95.95;101707.84;5058058;28;20235;-81
2021/11/11 02:04:54;;;;;;;15.63;2.03;;;;;;;7.70;96.20;101694.72;5062139;28;20024;-81
2021/11/11 02:07:20;;;;;;;16.20;2.38;;;;;;;7.83;96.12;101713.03;5060559;28;20039;-81
2021/11/11 02:09:47;;;;;;;14.77;2.08;;;;;;;7.82;96.96;101714.06;5060052;28;20088;-81
2021/11/11 02:12:13;;;;;;;15.52;1.92;;;;;;;7.80;96.81;101718.72;5060237;28;20108;-81
2021/11/11 02:14:39;;;;;;;14.27;1.88;;;;;;;7.77;96.32;101723.38;5060611;28;20056;-81
2021/11/11 02:17:05;;;;;;;19.02;2.35;;;;;;;7.66;96.82;101704.06;5057044;28;20025;-81
2021/11/11 02:19:30;;;;;;;21.15;2.63;;;;;;;7.68;96.87;101712.78;5061244;28;20132;-80
2021/11/11 02:21:55;;;;;;;16.10;2.28;;;;;;;7.69;96.88;101714.47;5060076;28;20029;-81
2021/11/11 02:24:21;;;;;;;15.77;2.25;;;;;;;7.66;96.97;101718.31;5059885;28;20466;-81
2021/11/11 02:26:47;;;;;;;22.02;2.65;;;;;;;7.63;97.15;101710.56;5061534;28;20029;-80
2021/11/11 02:29:13;;;;;;;12.00;1.67;;;;;;;7.62;96.96;101724.97;5059800;28;20023;-81
2021/11/11 02:31:40;;;;;;;14.95;2.30;;;;;;;7.61;97.17;101725.97;5062508;28;20028;-80
2021/11/11 02:34:05;;;;;;;15.90;2.03;;;;;;;7.61;97.29;101723.28;5058997;28;20139;-81
2021/11/11 02:36:30;;;;;;;17.73;1.95;;;;;;;7.58;97.42;101725.44;5059349;28;20048;-81
2021/11/11 02:38:57;;;;;;;17.98;1.80;;;;;;;7.60;97.17;101726.13;5062835;28;20039;-81
2021/11/11 02:41:24;;;;;;;14.45;2.30;;;;;;;7.60;97.52;101731.47;5066998;28;20379;-80
2021/11/11 02:43:50;;;;;;;24.92;2.97;;;;;;;7.59;97.48;101727.13;5058879;28;20067;-81
2021/11/11 02:46:16;;;;;;;17.02;2.10;;;;;;;7.58;97.54;101718.22;5061329;28;20028;-81
2021/11/11 02:48:42;;;;;;;16.83;2.00;;;;;;;7.59;97.74;101703.88;5062030;28;20031;-81
2021/11/11 02:51:07;;;;;;;18.02;2.45;;;;;;;7.53;97.36;101693.78;5068530;28;20026;-80
2021/11/11 02:53:32;;;;;;;18.63;2.00;;;;;;;7.61;97.63;101706.38;5054657;28;20406;-81
2021/11/11 02:55:58;;;;;;;14.45;2.20;;;;;;;7.60;97.54;101704.69;5058125;28;20426;-81
2021/11/11 02:58:24;;;;;;;19.17;2.15;;;;;;;7.60;98.11;101694.81;5054139;28;20040;-80
2021/11/11 03:00:52;;;;;;;14.50;1.85;;;;;;;7.61;98.10;101696.50;5058082;28;20132;-81
2021/11/11 03:03:17;;;;;;;19.35;2.63;;;;;;;7.50;97.77;101670.81;5070339;28;20036;-82
2021/11/11 03:05:43;;;;;;;20.75;2.80;;;;;;;7.60;98.27;101688.63;5055745;28;20389;-80
2021/11/11 03:08:10;;;;;;;22.98;2.08;;;;;;;7.62;97.94;101689.31;5062380;28;20095;-80
2021/11/11 03:10:41;;;;;;;19.13;2.30;;;;;;;7.30;98.32;101630.03;5060052;28;20029;-81
2021/11/11 03:13:08;;;;;;;18.55;2.25;;;;;;;7.62;98.27;101683.97;5061212;28;20040;-81
2021/11/11 03:15:35;;;;;;;20.55;1.98;;;;;;;7.61;98.54;101691.13;5062949;28;20095;-82
2021/11/11 03:18:01;;;;;;;20.45;2.20;;;;;;;7.53;98.86;101675.88;5062071;28;20456;-81
2021/11/11 03:20:27;;;;;;;16.38;2.53;;;;;;;7.65;98.88;101683.63;5062573;28;20053;-81
2021/11/11 03:22:53;;;;;;;17.60;2.83;;;;;;;7.68;98.77;101680.63;5059740;28;20033;-80
2021/11/11 03:25:22;;;;;;;20.38;3.40;;;;;;;7.67;99.86;101668.25;5062006;28;20025;-81
2021/11/11 03:27:48;;;;;;;18.58;2.55;;;;;;;7.77;99.76;101679.69;5061255;28;20096;-81
2021/11/11 03:30:16;;;;;;;19.05;2.67;;;;;;;7.79;99.99;101671.50;5064721;28;20421;-81
2021/11/11 03:32:42;;;;;;;16.88;2.30;;;;;;;7.82;100.00;101685.41;5062478;28;20033;-81
2021/11/11 03:35:09;;;;;;;21.63;2.60;;;;;;;7.84;100.00;101669.16;5063772;28;20021;-81
2021/11/11 03:37:37;;;;;;;22.30;2.65;;;;;;;7.86;100.00;101669.84;5065465;28;20021;-81
2021/11/11 03:40:07;;;;;;;22.27;2.67;;;;;;;7.85;100.00;101686.94;5062574;28;20029;-79
2021/11/11 03:42:35;;;;;;;22.90;2.80;;;;;;;7.80;100.00;101679.38;5063299;28;20040;-81
2021/11/11 03:45:01;;;;;;;24.67;2.78;;;;;;;7.84;100.00;101680.72;5064973;28;20083;-80
2021/11/11 03:47:26;;;;;;;22.73;3.08;;;;;;;7.83;100.00;101679.06;5062098;28;20036;-80
2021/11/11 03:49:52;;;;;;;23.30;3.47;;;;;;;7.86;100.00;101678.72;5065060;28;20044;-81
2021/11/11 03:52:18;;;;;;;24.85;2.97;;;;;;;7.87;100.00;101677.72;5068132;28;20032;-80
2021/11/11 03:54:44;;;;;;;21.85;2.88;;;;;;;7.86;100.00;101675.22;5062887;28;20033;-81
2021/11/11 03:57:09;;;;;;;23.80;2.85;;;;;;;7.86;100.00;101657.28;5063396;28;20081;-82
2021/11/11 03:59:36;;;;;;;21.95;2.65;;;;;;;7.94;100.00;101659.16;5068154;28;20040;-82
2021/11/11 04:02:04;;;;;;;24.63;2.92;;;;;;;7.96;100.00;101666.03;5075517;28;20025;-81
2021/11/11 04:04:32;;;;;;;27.30;2.88;;;;;;;7.93;100.00;101649.44;5068641;28;20029;-81
2021/11/11 04:06:59;;;;;;;16.65;2.80;;;;;;;8.03;100.00;101668.09;5066810;28;20040;-80
2021/11/11 04:09:24;;;;;;;21.52;2.47;;;;;;;8.04;100.00;101657.19;5058510;28;20053;-81
2021/11/11 04:11:51;;;;;;;27.42;2.80;;;;;;;8.06;100.00;101651.69;5063945;28;20454;-80
2021/11/11 04:14:17;;;;;;;17.60;2.53;;;;;;;8.08;100.00;101633.59;5063265;28;20029;-81
2021/11/11 04:16:43;;;;;;;27.83;3.25;;;;;;;8.08;100.00;101638.94;5068414;28;20072;-81
2021/11/11 04:19:08;;;;;;;26.45;3.03;;;;;;;7.82;100.00;101591.63;5070181;28;20029;-81
2021/11/11 04:21:34;;;;;;;22.55;3.28;;;;;;;8.09;100.00;101629.91;5067492;28;20048;-80
2021/11/11 04:24:00;;;;;;;25.30;3.45;;;;;;;8.11;100.00;101619.84;5061676;28;20062;-79
2021/11/11 04:26:32;;;;;;;19.75;2.63;;;;;;;8.13;100.00;101617.88;5063556;28;20236;-81
2021/11/11 04:29:17;;;;;;;26.80;3.33;;;;;;;8.09;100.00;101603.94;5062973;28;20033;-81
2021/11/11 04:31:51;;;;;;;23.10;3.25;;;;;;;8.15;100.00;101613.19;5053935;28;20044;-82
2021/11/11 04:34:17;;;;;;;22.98;2.30;;;;;;;8.14;100.00;101614.16;5073790;28;20048;-81
2021/11/11 04:37:07;;;;;;;29.90;2.63;;;;;;;8.11;100.00;101610.00;5064342;28;20029;-81
2021/11/11 04:53:05;;;;;;;20.88;2.38;;;;;;;8.13;100.00;101610.66;5063906;28;20519;-81
2021/11/11 05:03:35;;;;;;;25.30;3.22;;;;;;;8.21;100.00;101594.59;5064402;28;20037;-81
2021/11/11 05:06:02;;;;;;;16.90;2.50;;;;;;;8.27;100.00;101590.41;5066657;28;20033;-82
2021/11/11 05:08:29;;;;;;;20.80;2.50;;;;;;;8.25;100.00;101573.66;5065503;28;20086;-80
2021/11/11 05:10:57;;;;;;;26.25;2.80;;;;;;;8.29;100.00;101571.50;5061043;28;20025;-81
2021/11/11 05:13:24;;;;;;;16.75;2.25;;;;;;;8.31;100.00;101567.66;5064937;28;20365;-81
2021/11/11 05:15:49;;;;;;;19.20;2.47;;;;;;;8.27;100.00;101563.59;5066248;28;20446;-81
2021/11/11 05:18:15;;;;;;;21.10;3.05;;;;;;;8.34;100.00;101580.69;5101623;28;20039;-80
2021/11/11 05:20:40;;;;;;;18.30;2.33;;;;;;;8.35;100.00;101568.16;5069042;28;20056;-80
2021/11/11 05:23:06;;;;;;;21.10;3.08;;;;;;;8.37;99.80;101564.28;5062366;28;20093;-80
2021/11/11 05:25:31;;;;;;;20.95;2.38;;;;;;;8.37;100.00;101558.91;5070786;28;20059;-82
2021/11/11 05:27:57;;;;;;;16.67;2.47;;;;;;;8.42;100.00;101566.50;5073545;28;20016;-81
2021/11/11 05:30:23;;;;;;;20.60;2.42;;;;;;;8.44;99.46;101567.16;5071360;28;20027;-80
2021/11/11 05:32:49;;;;;;;23.23;2.47;;;;;;;8.47;99.70;101570.34;5055089;28;20045;-80
2021/11/11 05:35:15;;;;;;;19.10;2.42;;;;;;;8.45;99.24;101561.66;5054017;28;20047;-80
2021/11/11 05:37:42;;;;;;;23.85;3.72;;;;;;;8.58;99.44;101563.00;5043112;28;20029;-80
2021/11/11 05:40:09;;;;;;;15.40;2.22;;;;;;;8.62;99.30;101558.97;5045910;28;20021;-79
2021/11/11 05:42:35;;;;;;;18.55;2.30;;;;;;;8.63;99.67;101548.06;5049752;28;20021;-80
2021/11/11 05:45:02;;;;;;;26.17;3.55;;;;;;;8.63;99.19;101539.19;5054360;28;20347;-80
2021/11/11 05:47:27;;;;;;;20.35;2.75;;;;;;;8.66;99.13;101525.44;5057240;28;20104;-81
2021/11/11 05:49:53;;;;;;;23.38;3.13;;;;;;;8.64;99.28;101524.75;5059047;28;20024;-80
2021/11/11 05:52:18;;;;;;;19.27;2.30;;;;;;;8.54;99.13;101502.63;5061069;28;20405;-81
2021/11/11 05:54:45;;;;;;;25.15;2.70;;;;;;;8.51;99.40;101494.91;5058297;28;20111;-80
2021/11/11 05:57:11;;;;;;;21.17;2.33;;;;;;;8.33;98.57;101466.41;5056363;28;20033;-81
2021/11/11 05:59:39;;;;;;;19.58;2.75;;;;;;;8.51;99.24;101490.41;5066861;28;20032;-81
2021/11/11 06:02:06;;;;;;;25.45;2.70;;;;;;;8.56;99.30;101509.50;5056820;28;20029;-84
2021/11/11 06:04:32;;;;;;;18.20;2.42;;;;;;;8.52;98.52;101512.72;5061302;28;20044;-82
2021/11/11 06:06:57;;;;;;;29.90;2.65;;;;;;;8.53;99.09;101527.78;5063620;28;20032;-81
2021/11/11 06:09:24;;;;;;;20.08;3.40;;;;;;;8.52;99.62;101534.16;5067020;28;20029;-84
2021/11/11 06:11:49;;;;;;;18.15;2.78;;;;;;;8.47;99.48;101527.44;5068666;28;20027;-81
2021/11/11 06:14:16;;;;;;;27.10;3.08;;;;;;;8.41;99.15;101524.59;5063500;28;20025;-81
2021/11/11 06:16:42;;;;;;;21.08;3.20;;;;;;;8.43;99.82;101509.19;5059067;28;20052;-81
2021/11/11 06:19:09;;;;;;;19.85;2.75;;;;;;;8.38;99.61;101515.06;5062509;28;20021;-83
2021/11/11 06:21:38;;;;;;;25.85;3.10;;;;;;;8.37;100.00;101504.44;5066200;28;20034;-82
2021/11/11 06:24:05;;;;;;;26.23;2.97;;;;;;;8.37;100.00;101505.28;5067540;28;20015;-82
2021/11/11 06:26:31;;;;;;;22.42;3.45;;;;;;;8.23;100.00;101482.66;5068286;28;20032;-82
2021/11/11 06:28:56;;;;;;;26.67;3.22;;;;;;;8.34;100.00;101494.06;5078177;28;20033;-82
2021/11/11 06:31:22;;;;;;;20.95;2.60;;;;;;;8.27;100.00;101477.78;5073058;28;20044;-83
2021/11/11 06:33:48;;;;;;;19.95;2.67;;;;;;;8.32;100.00;101491.56;5066611;28;20048;-82
2021/11/11 06:36:13;;;;;;;20.75;2.47;;;;;;;8.33;99.84;101492.38;5064585;28;20036;-81
2021/11/11 06:38:39;;;;;;;20.80;2.72;;;;;;;8.32;100.00;101486.19;5069502;28;20009;-84
2021/11/11 06:41:05;;;;;;;21.10;2.80;;;;;;;8.31;100.00;101486.34;5070670;28;20088;-82
2021/11/11 06:43:32;;;;;;;19.85;2.95;;;;;;;8.29;100.00;101497.25;5074019;28;20073;-83
2021/11/11 06:45:58;;;;;;;24.27;3.08;;;;;;;8.20;100.00;101476.78;5064124;28;20030;-81
2021/11/11 06:48:23;;;;;;;22.25;3.50;;;;;;;8.32;100.00;101480.81;5063517;28;20029;-82
2021/11/11 06:50:49;;;;;;;23.58;3.45;;;;;;;8.36;100.00;101484.84;5064252;28;20057;-82
2021/11/11 06:53:18;;;;;;;19.17;2.88;;;;;;;8.38;100.00;101485.56;5066203;28;20364;-82
2021/11/11 06:55:44;;;;;;;26.83;3.63;;;;;;;8.43;100.00;101477.81;5057899;28;20032;-82
2021/11/11 06:58:12;;;;;;;19.00;2.75;;;;;;;8.50;100.00;101477.16;5058028;28;20026;-82
2021/11/11 07:00:38;;;;;;;21.20;2.60;;;;;;;8.55;100.00;101477.50;5066868;28;20358;-80
2021/11/11 07:03:03;;;;;;;23.50;3.03;;;;;;;8.59;100.00;101465.41;5060558;28;20021;-82
2021/11/11 07:05:29;;;;;;;23.33;2.53;;;;;;;8.63;99.91;101462.22;5066654;28;20083;-81
2021/11/11 07:07:54;;;;;;;23.08;2.50;;;;;;;8.68;100.00;101453.66;5061113;28;20021;-82
2021/11/11 07:10:20;;;;;;;22.40;3.70;;;;;;;8.73;100.00;101462.03;5072916;28;20005;-81
2021/11/11 07:12:46;;;;;;;22.20;2.80;;;;;;;8.79;100.00;101466.72;5073926;28;20044;-81
2021/11/11 07:15:15;;;;;;;20.77;2.90;;;;;;;8.85;99.99;101465.22;5051576;28;20054;-82
2021/11/11 07:17:40;;;;;;;18.80;2.67;;;;;;;8.87;100.00;101458.66;5070031;28;20082;-81
2021/11/11 07:20:10;;;;;;;25.90;2.80;;;;;;;8.91;100.00;101460.00;5064346;28;20068;-81
2021/11/11 07:22:36;;;;;;;19.63;2.97;;;;;;;8.98;100.00;101459.31;5067131;28;20028;-80
2021/11/11 07:25:02;;;;;;;20.67;3.03;;;;;;;9.01;100.00;101464.31;5064109;28;20088;-80
2021/11/11 07:27:28;;;;;;;21.70;3.60;;;;;;;8.97;100.00;101452.25;5062322;28;20033;-80
2021/11/11 07:29:53;;;;;;;26.30;2.95;;;;;;;8.98;100.00;101438.66;5060362;28;20063;-81
2021/11/11 07:32:18;;;;;;;26.38;3.95;;;;;;;9.14;100.00;101451.19;5064819;28;20060;-80
2021/11/11 07:34:44;;;;;;;23.73;3.42;;;;;;;9.20;100.00;101447.78;5068748;28;20094;-80
2021/11/11 07:37:10;;;;;;;23.05;3.20;;;;;;;9.15;100.00;101426.00;5061589;28;20063;-81
2021/11/11 07:39:36;;;;;;;22.45;3.28;;;;;;;9.29;100.00;101446.75;5063548;28;20043;-80
2021/11/11 07:42:02;;;;;;;24.05;3.15;;;;;;;9.34;100.00;101439.00;5066185;28;20507;-81
2021/11/11 07:44:33;;;;;;;20.58;2.53;;;;;;;9.39;100.00;101435.78;5060387;28;20032;-81
2021/11/11 07:46:59;;;;;;;25.92;3.47;;;;;;;9.31;100.00;101403.63;5055445;28;20032;-81
2021/11/11 07:49:26;;;;;;;19.17;2.83;;;;;;;9.46;100.00;101417.13;5058158;28;20454;-81
2021/11/11 07:51:52;;;;;;;26.17;3.03;;;;;;;9.36;100.00;101394.00;5058059;28;20033;-81
2021/11/11 07:54:24;;;;;;;29.95;3.17;;;;;;;9.28;100.00;101369.88;5059967;28;20044;-80
2021/11/11 07:56:49;;;;;;;22.30;3.33;;;;;;;9.50;100.00;101405.00;5063893;28;20063;-80
2021/11/11 07:59:14;;;;;;;22.83;3.10;;;;;;;9.62;100.00;101417.84;5072633;28;20029;-81
2021/11/11 08:01:40;;;;;;;26.08;3.97;;;;;;;9.68;100.00;101416.31;5068320;28;20047;-81
2021/11/11 08:04:07;;;;;;;26.98;3.47;;;;;;;9.52;100.00;101376.13;5063926;28;20013;-81
2021/11/11 08:06:33;;;;;;;25.27;2.90;;;;;;;9.78;100.00;101408.03;5059957;28;20054;-80
2021/11/11 08:08:59;;;;;;;28.33;4.13;;;;;;;9.78;100.00;101397.28;5056869;28;20360;-80
2021/11/11 08:11:26;;;;;;;27.00;2.70;;;;;;;9.84;100.00;101407.31;5059488;28;20033;-80
2021/11/11 08:13:51;;;;;;;19.75;2.78;;;;;;;9.86;100.00;101389.13;5059798;28;20025;-81
2021/11/11 08:16:17;;;;;;;27.08;3.80;;;;;;;9.85;100.00;101395.53;5053931;28;20487;-83
2021/11/11 08:18:43;;;;;;;19.25;3.05;;;;;;;9.89;100.00;101388.78;5070137;28;20347;-80
2021/11/11 08:21:08;;;;;;;18.63;2.28;;;;;;;9.89;100.00;101383.41;5064088;28;20328;-80
2021/11/11 08:23:35;;;;;;;20.33;2.80;;;;;;;9.85;100.00;101377.53;5057306;28;20438;-80
2021/11/11 08:26:04;;;;;;;15.32;2.35;;;;;;;9.91;100.00;101385.91;5055604;28;20029;-80
2021/11/11 08:28:30;;;;;;;14.05;1.98;;;;;;;9.88;100.00;101379.88;5055242;28;20025;-80
2021/11/11 08:30:56;;;;;;;16.80;2.05;;;;;;;9.92;100.00;101390.28;5056325;28;20063;-80
2021/11/11 08:33:21;;;;;;;15.82;2.00;;;;;;;9.91;100.00;101389.44;5055802;28;20021;-79
2021/11/11 08:35:47;;;;;;;16.95;2.42;;;;;;;9.91;100.00;101377.84;5055408;28;20087;-79
2021/11/11 08:38:13;;;;;;;16.75;2.30;;;;;;;9.91;100.00;101385.91;5051994;28;20062;-79
2021/11/11 08:40:39;;;;;;;14.52;2.65;;;;;;;9.96;100.00;101375.44;5063508;28;20071;-81
2021/11/11 08:43:05;;;;;;;16.70;2.35;;;;;;;9.90;100.00;101363.59;5077512;28;20085;-80
2021/11/11 08:45:32;;;;;;;20.42;2.58;;;;;;;10.00;100.00;101368.69;5055288;28;20029;-80
2021/11/11 08:47:58;;;;;;;16.15;2.55;;;;;;;10.07;100.00;101364.28;5036237;28;20020;-80
2021/11/11 08:50:28;;;;;;;15.25;2.20;;;;;;;10.16;100.00;101357.78;5042917;28;20052;-80
2021/11/11 08:52:55;;;;;;;15.60;2.33;;;;;;;10.19;100.00;101333.22;5044303;28;20382;-81
2021/11/11 08:55:24;;;;;;;17.92;2.60;;;;;;;10.33;100.00;101340.50;5044169;28;20371;-80
2021/11/11 08:57:50;;;;;;;14.05;2.30;;;;;;;10.39;100.00;101335.41;5059757;28;20031;-80
2021/11/11 09:00:19;;;;;;;13.07;2.25;;;;;;;10.06;100.00;101279.22;5058164;28;20047;-80
2021/11/11 09:02:47;;;;;;;18.05;2.50;;;;;;;10.34;100.00;101326.03;5092128;28;20028;-80
2021/11/11 09:05:12;;;;;;;19.42;3.78;;;;;;;10.32;100.00;101329.91;5060978;28;20024;-81
2021/11/11 09:07:39;;;;;;;23.65;3.67;;;;;;;10.27;100.00;101335.88;5062791;28;20029;-81
2021/11/11 09:10:23;;;;;;;24.15;3.80;;;;;;;10.25;100.00;101337.03;5069466;28;20036;-79
2021/11/11 09:12:50;;;;;;;25.33;3.47;;;;;;;10.21;100.00;101339.25;5056389;28;20037;-80
2021/11/11 09:15:18;;;;;;;16.02;4.07;;;;;;;10.10;100.00;101331.66;5061118;28;20051;-81
2021/11/11 09:17:44;;;;;;;27.10;4.22;;;;;;;10.07;100.00;101326.63;5058586;28;20044;-79
2021/11/11 09:20:13;;;;;;;15.75;3.58;;;;;;;9.99;100.00;101321.31;5059056;28;20494;-81
2021/11/11 09:22:39;;;;;;;20.30;3.60;;;;;;;10.16;100.00;101347.03;5059027;28;20025;-80
2021/11/11 09:25:07;;;;;;;18.45;3.22;;;;;;;10.16;100.00;101341.63;5057997;28;20025;-80
2021/11/11 09:27:33;;;;;;;16.67;3.28;;;;;;;10.24;100.00;101348.81;5058531;28;20085;-80
2021/11/11 09:29:59;;;;;;;19.63;3.40;;;;;;;10.02;100.00;101318.25;5060682;28;20032;-81
2021/11/11 09:32:24;;;;;;;21.23;3.13;;;;;;;10.26;100.00;101347.63;5062357;28;20021;-80
2021/11/11 09:34:50;;;;;;;19.52;3.58;;;;;;;10.38;100.00;101353.41;5073131;28;20036;-81
2021/11/11 09:37:15;;;;;;;19.63;3.22;;;;;;;10.44;100.00;101359.91;5056355;28;20032;-80
2021/11/11 09:39:41;;;;;;;21.08;4.18;;;;;;;10.44;100.00;101341.91;5051432;28;20082;-81
2021/11/11 09:42:07;;;;;;;14.13;3.17;;;;;;;10.52;100.00;101340.97;5055948;28;20131;-80
2021/11/11 09:44:32;;;;;;;20.67;3.97;;;;;;;10.66;100.00;101356.28;5049062;28;20021;-79
2021/11/11 09:46:58;;;;;;;16.23;3.47;;;;;;;10.62;100.00;101340.69;5046842;28;20473;-81
2021/11/11 09:49:27;;;;;;;18.17;3.22;;;;;;;10.73;100.00;101365.28;5052838;28;20443;-81
2021/11/11 09:51:52;;;;;;;17.88;2.92;;;;;;;10.78;99.63;101372.78;5043682;28;20522;-81
2021/11/11 09:58:34;;;;;;;15.60;2.88;;;;;;;10.92;99.71;101368.41;5046726;28;20089;-81
2021/11/11 09:59:49;;;;;;;15.57;2.40;;;;;;;11.05;97.88;101363.19;5044616;28;20028;-80
2021/11/11 10:02:15;;;;;;;21.15;2.72;;;;;;;11.01;97.64;101346.59;5045252;28;20045;-80
2021/11/11 10:04:41;;;;;;;17.42;3.13;;;;;;;11.08;97.01;101359.28;5053433;28;20021;-80
2021/11/11 10:07:07;;;;;;;13.98;2.55;;;;;;;11.16;96.37;101368.13;5050121;28;20043;-79
2021/11/11 10:09:41;;;;;;;17.17;2.55;;;;;;;11.14;96.13;101356.69;5051011;28;20396;-80
2021/11/11 10:12:14;;;;;;;18.50;3.20;;;;;;;11.12;96.68;101345.25;5051231;28;20028;-80
2021/11/11 10:14:41;;;;;;;17.42;2.60;;;;;;;11.07;96.91;101354.94;5052311;28;20028;-80
2021/11/11 10:17:09;;;;;;;18.55;3.00;;;;;;;11.03;96.70;101359.88;5055674;28;20037;-81
2021/11/11 10:19:41;;;;;;;24.95;3.10;;;;;;;11.00;96.32;101347.63;5063760;28;20048;-80
2021/11/11 10:22:18;;;;;;;21.27;3.15;;;;;;;11.02;96.18;101350.09;5056509;28;20025;-80
2021/11/11 10:24:48;;;;;;;15.35;3.08;;;;;;;10.93;95.89;101345.88;5055012;28;20032;-80
2021/11/11 10:27:43;;;;;;;18.20;3.28;;;;;;;10.86;96.14;101337.72;5057517;28;20016;-82
2021/11/11 10:30:14;;;;;;;13.77;2.22;;;;;;;10.88;95.56;101338.34;5074767;28;20081;-82
2021/11/11 10:32:48;;;;;;;18.30;2.72;;;;;;;10.87;94.59;101331.28;5075799;28;20052;-81
2021/11/11 10:35:17;;;;;;;22.00;2.65;;;;;;;10.85;94.52;101332.50;5069771;28;20071;-82
2021/11/11 10:38:05;;;;;;;13.50;2.40;;;;;;;10.53;94.40;101275.38;5065713;28;20052;-82
2021/11/11 10:40:40;;;;;;;23.52;3.38;;;;;;;10.81;93.53;101314.03;5060201;28;20032;-82
2021/11/11 10:43:21;;;;;;;14.05;2.92;;;;;;;10.85;93.42;101325.25;5069459;28;20021;-83
2021/11/11 10:45:50;;;;;;;19.90;3.15;;;;;;;10.78;92.77;101306.31;5068371;28;20036;-82
2021/11/11 10:48:19;;;;;;;18.75;2.38;;;;;;;10.91;92.22;101310.22;5071939;28;20021;-82
2021/11/11 10:50:47;;;;;;;17.30;3.78;;;;;;;10.92;91.35;101318.09;5077580;28;20025;-83
2021/11/11 10:53:18;;;;;;;16.80;2.50;;;;;;;10.94;91.85;101318.75;5075632;28;20055;-81
2021/11/11 10:55:49;;;;;;;19.27;2.88;;;;;;;10.94;91.37;101309.84;5068969;28;20048;-81
2021/11/11 10:58:20;;;;;;;14.70;2.65;;;;;;;10.95;91.17;101311.50;5082143;28;20527;-80
2021/11/11 11:01:07;;;;;;;12.48;2.30;;;;;;;10.97;91.20;101309.47;5088585;28;20089;-81
2021/11/11 11:03:37;;;;;;;22.50;3.25;;;;;;;10.99;91.83;101316.34;5061359;28;20036;-81
2021/11/11 11:06:05;;;;;;;22.20;3.28;;;;;;;11.01;91.75;101318.81;5072327;28;20033;-81
2021/11/11 11:08:35;;;;;;;17.40;2.70;;;;;;;11.05;92.18;101315.56;5072562;28;20413;-81
2021/11/11 11:11:18;;;;;;;16.27;2.67;;;;;;;11.06;91.99;101313.72;5065251;28;20434;-80
2021/11/11 11:13:48;;;;;;;16.95;2.72;;;;;;;11.01;91.58;101300.81;5055023;28;20086;-80
2021/11/11 11:16:15;;;;;;;20.20;2.67;;;;;;;11.07;91.69;101293.84;5056439;28;20055;-80
2021/11/11 11:18:47;;;;;;;17.50;3.20;;;;;;;11.00;91.55;101298.31;5054952;28;20450;-80
2021/11/11 11:21:23;;;;;;;13.88;2.72;;;;;;;11.00;90.94;101291.06;5058097;28;20049;-80
2021/11/11 11:23:51;;;;;;;15.63;2.60;;;;;;;11.01;90.85;101281.94;5041672;28;20025;-80
2021/11/11 11:26:22;;;;;;;12.70;2.45;;;;;;;10.89;90.47;101248.47;5042379;28;20109;-80
2021/11/11 11:29:09;;;;;;;24.05;3.15;;;;;;;11.04;89.87;101275.34;5043696;28;20388;-80
2021/11/11 11:31:51;;;;;;;15.27;2.78;;;;;;;11.05;89.76;101268.94;5062840;28;20029;-81
2021/11/11 11:34:27;;;;;;;22.77;3.08;;;;;;;11.14;90.03;101269.66;5062775;28;20033;-80
2021/11/11 11:37:02;;;;;;;18.75;2.55;;;;;;;11.13;90.28;101270.69;5056596;28;20033;-81
2021/11/11 11:39:37;;;;;;;13.70;2.33;;;;;;;11.16;89.77;101270.28;5061165;28;20065;-81
2021/11/11 11:42:18;;;;;;;17.67;2.53;;;;;;;11.14;90.00;101269.66;5058430;28;20056;-81
2021/11/11 11:44:55;;;;;;;16.88;3.00;;;;;;;10.87;89.82;101214.69;5043696;28;20076;-80